Time;durP1;ratioP1;P1;durP2;ratioP2;P2;SDS_P1;SDS_P2;PMS_P1;PMS_P2;Temp;Humidity;BMP_temperature;BMP_pressure;BME280_temperature;BME280_humidity;BME280_pressure;Samples;Min_cycle;Max_cycle;Signal;HPM_P1;HPM_P2
2023/08/13 00:00:51;;;;;;;3.00;2.72;;;20.40;99.90;;;;;;5080757;28;20245;-65
2023/08/13 00:03:19;;;;;;;3.78;2.83;;;20.40;99.90;;;;;;5079406;28;20333;-65
2023/08/13 00:05:46;;;;;;;3.33;2.40;;;20.40;99.90;;;;;;5056875;28;20223;-66
2023/08/13 00:08:14;;;;;;;3.45;2.10;;;20.40;99.90;;;;;;5068282;28;20184;-66
2023/08/13 00:10:40;;;;;;;3.28;2.20;;;20.40;99.90;;;;;;5080126;28;20183;-65
2023/08/13 00:13:10;;;;;;;2.60;2.10;;;20.40;99.90;;;;;;5103073;28;20184;-65
2023/08/13 00:15:38;;;;;;;2.03;1.83;;;20.50;99.90;;;;;;5108664;28;20172;-66
2023/08/13 00:18:06;;;;;;;3.67;2.00;;;20.40;99.90;;;;;;5105119;28;20207;-67
2023/08/13 00:20:32;;;;;;;3.00;2.08;;;20.40;99.90;;;;;;5080156;28;20202;-67
2023/08/13 00:22:57;;;;;;;2.25;1.90;;;20.40;99.90;;;;;;5081481;28;20173;-67
2023/08/13 00:25:26;;;;;;;5.38;2.15;;;20.40;99.90;;;;;;5077121;28;20173;-67
2023/08/13 00:27:54;;;;;;;2.78;1.80;;;20.40;99.90;;;;;;5080164;28;20184;-67
2023/08/13 00:30:19;;;;;;;2.05;1.80;;;20.40;99.90;;;;;;5079646;28;20172;-66
2023/08/13 00:32:45;;;;;;;2.08;1.70;;;20.40;99.90;;;;;;5080192;28;20221;-66
2023/08/13 00:35:11;;;;;;;2.20;1.70;;;20.40;99.90;;;;;;5068041;28;20223;-66
2023/08/13 00:37:39;;;;;;;2.17;1.90;;;20.40;99.90;;;;;;5068317;28;20172;-65
2023/08/13 00:40:05;;;;;;;1.92;1.70;;;20.40;99.90;;;;;;5076197;28;20513;-66
2023/08/13 00:42:30;;;;;;;2.22;1.60;;;20.40;99.90;;;;;;5071979;28;20257;-66
2023/08/13 00:44:56;;;;;;;1.73;1.50;;;20.40;99.90;;;;;;5076045;28;20181;-67
2023/08/13 00:47:22;;;;;;;2.22;1.70;;;20.40;99.90;;;;;;5096617;28;20189;-67
2023/08/13 00:49:50;;;;;;;2.05;1.80;;;20.40;99.90;;;;;;5077730;28;20207;-65
2023/08/13 00:52:18;;;;;;;1.67;1.45;;;20.40;99.90;;;;;;5078894;28;20200;-67
2023/08/13 00:54:44;;;;;;;4.95;1.90;;;20.40;99.90;;;;;;5076528;28;20268;-65
2023/08/13 00:57:11;;;;;;;1.83;1.60;;;20.40;99.90;;;;;;5079648;28;20405;-66
2023/08/13 00:59:39;;;;;;;2.08;1.60;;;20.40;99.90;;;;;;5073204;28;20217;-66
2023/08/13 01:02:07;;;;;;;2.90;1.60;;;20.40;99.90;;;;;;5086604;28;20270;-66
2023/08/13 01:04:33;;;;;;;1.52;1.30;;;20.50;99.90;;;;;;5074418;28;20172;-63
2023/08/13 01:07:20;;;;;;;1.98;1.50;;;20.50;99.90;;;;;;5071856;28;20186;-65
2023/08/13 01:09:55;;;;;;;1.67;1.45;;;20.50;99.90;;;;;;5075922;28;20287;-66
2023/08/13 01:12:44;;;;;;;2.03;1.38;;;20.50;99.90;;;;;;5078297;28;20175;-66
2023/08/13 01:15:28;;;;;;;1.65;1.38;;;20.60;99.90;;;;;;5087125;28;20220;-66
2023/08/13 01:17:56;;;;;;;1.90;1.50;;;20.60;99.90;;;;;;5082612;28;20252;-68
2023/08/13 01:20:34;;;;;;;2.20;1.50;;;20.60;99.90;;;;;;5075836;28;20215;-66
2023/08/13 01:23:00;;;;;;;2.13;1.40;;;20.60;99.90;;;;;;5077943;28;20183;-66
2023/08/13 01:25:28;;;;;;;1.73;1.27;;;20.60;99.90;;;;;;5077779;28;20172;-66
2023/08/13 01:28:08;;;;;;;2.03;1.17;;;20.70;99.90;;;;;;5076730;28;20184;-66
2023/08/13 01:30:44;;;;;;;2.47;1.73;;;20.70;99.90;;;;;;5075339;28;20256;-67
2023/08/13 01:33:26;;;;;;;1.70;1.33;;;20.70;99.90;;;;;;5076296;28;20259;-66
2023/08/13 01:36:05;;;;;;;2.60;1.40;;;20.70;99.90;;;;;;5100348;28;20279;-66
2023/08/13 01:38:37;;;;;;;1.83;1.38;;;20.70;99.90;;;;;;5073618;28;20232;-66
2023/08/13 01:41:06;;;;;;;2.55;1.50;;;20.70;99.90;;;;;;5098019;28;20197;-66
2023/08/13 01:43:36;;;;;;;2.22;1.52;;;20.80;99.90;;;;;;5077219;28;20192;-65
2023/08/13 01:46:05;;;;;;;1.33;1.20;;;20.80;99.90;;;;;;5078566;28;20184;-67
2023/08/13 01:48:31;;;;;;;2.40;1.20;;;20.80;99.90;;;;;;5079887;28;20258;-66
2023/08/13 01:50:58;;;;;;;2.85;1.40;;;20.80;99.90;;;;;;5106961;28;20291;-65
2023/08/13 01:53:24;;;;;;;1.85;1.27;;;20.80;99.90;;;;;;5058310;28;20180;-65
2023/08/13 01:55:52;;;;;;;3.60;1.40;;;20.70;99.90;;;;;;5076268;28;20207;-64
2023/08/13 01:58:18;;;;;;;2.72;1.42;;;20.70;99.90;;;;;;5077961;28;20183;-66
2023/08/13 02:00:43;;;;;;;2.05;1.42;;;20.70;99.90;;;;;;5085183;28;20204;-65
2023/08/13 02:03:10;;;;;;;2.17;1.30;;;20.70;99.90;;;;;;5112379;28;20182;-66
2023/08/13 02:05:36;;;;;;;1.70;1.30;;;20.70;99.90;;;;;;5079087;28;20187;-67
2023/08/13 02:08:02;;;;;;;1.35;1.10;;;20.60;99.90;;;;;;5075628;28;20172;-66
2023/08/13 02:10:27;;;;;;;1.55;1.20;;;20.60;99.90;;;;;;5114863;27;20263;-67
2023/08/13 02:12:55;;;;;;;1.50;1.38;;;20.60;99.90;;;;;;5072242;28;20168;-66
2023/08/13 02:15:21;;;;;;;3.47;1.20;;;20.60;99.90;;;;;;5085839;28;20235;-66
2023/08/13 02:17:46;;;;;;;1.65;1.10;;;20.40;99.90;;;;;;5076580;28;20231;-65
2023/08/13 02:20:14;;;;;;;2.13;1.15;;;20.50;99.90;;;;;;5077270;28;20192;-66
2023/08/13 02:22:40;;;;;;;2.80;1.58;;;20.50;99.90;;;;;;5071035;28;20233;-67
2023/08/13 02:25:08;;;;;;;1.63;1.30;;;20.50;99.90;;;;;;5076835;28;20200;-66
2023/08/13 02:27:36;;;;;;;2.25;1.30;;;20.40;99.90;;;;;;5078902;28;20202;-66
2023/08/13 02:30:03;;;;;;;2.75;1.20;;;20.50;99.90;;;;;;5079944;28;20215;-66
2023/08/13 02:32:31;;;;;;;4.35;1.38;;;20.50;99.90;;;;;;5077354;28;20171;-66
2023/08/13 02:34:57;;;;;;;2.72;1.20;;;20.40;99.90;;;;;;5075809;28;20183;-68
2023/08/13 02:37:23;;;;;;;1.98;1.20;;;20.50;99.90;;;;;;5075104;28;20184;-66
2023/08/13 02:39:48;;;;;;;2.17;1.30;;;20.50;99.90;;;;;;5081486;28;20265;-66
2023/08/13 02:42:14;;;;;;;3.45;1.50;;;20.40;99.90;;;;;;5103494;28;20211;-65
2023/08/13 02:44:40;;;;;;;2.00;1.38;;;20.40;99.90;;;;;;5086711;28;20225;-66
2023/08/13 02:47:06;;;;;;;2.65;1.48;;;20.40;99.90;;;;;;5077710;28;20180;-65
2023/08/13 02:49:31;;;;;;;2.38;1.48;;;20.40;99.90;;;;;;5075325;28;20196;-66
2023/08/13 02:51:57;;;;;;;2.28;1.67;;;20.30;99.90;;;;;;5077898;28;20183;-65
2023/08/13 02:54:22;;;;;;;2.05;1.35;;;20.30;99.90;;;;;;5110261;28;20184;-66
2023/08/13 02:56:51;;;;;;;3.25;1.55;;;20.30;99.90;;;;;;5077029;28;20203;-67
2023/08/13 02:59:16;;;;;;;2.60;1.33;;;20.30;99.90;;;;;;5071348;28;20200;-66
2023/08/13 03:01:44;;;;;;;1.58;1.30;;;20.20;99.90;;;;;;5072318;28;20180;-66
2023/08/13 03:04:12;;;;;;;3.28;1.30;;;20.20;99.90;;;;;;5073341;28;20206;-66
2023/08/13 03:06:37;;;;;;;3.80;1.50;;;20.20;99.90;;;;;;5083645;28;20187;-66
2023/08/13 03:09:06;;;;;;;2.22;1.17;;;20.20;99.90;;;;;;5076937;28;20237;-66
2023/08/13 03:11:38;;;;;;;2.15;1.30;;;20.10;99.90;;;;;;5076374;28;20198;-66
2023/08/13 03:14:04;;;;;;;2.28;1.40;;;20.10;99.90;;;;;;5076319;28;20203;-66
2023/08/13 03:16:30;;;;;;;3.40;1.50;;;20.10;99.90;;;;;;5073549;28;20245;-65
2023/08/13 03:18:55;;;;;;;2.22;1.27;;;20.00;99.90;;;;;;5074579;28;20179;-65
2023/08/13 03:21:23;;;;;;;2.05;1.33;;;20.00;99.90;;;;;;5072008;28;20228;-65
2023/08/13 03:23:53;;;;;;;1.40;1.27;;;19.90;99.90;;;;;;5065972;28;20168;-66
2023/08/13 03:26:21;;;;;;;2.35;1.30;;;19.80;99.90;;;;;;5076905;28;20172;-65
2023/08/13 03:28:47;;;;;;;3.40;1.50;;;19.80;99.90;;;;;;5057595;28;20176;-65
2023/08/13 03:31:12;;;;;;;1.95;1.30;;;19.70;99.90;;;;;;5069260;28;20311;-65
2023/08/13 03:33:38;;;;;;;2.15;1.40;;;19.70;99.90;;;;;;5076286;28;20204;-65
2023/08/13 03:36:04;;;;;;;1.90;1.27;;;19.60;99.90;;;;;;5076882;28;20357;-66
2023/08/13 03:38:29;;;;;;;2.20;1.30;;;19.60;99.90;;;;;;5078624;28;20204;-66
2023/08/13 03:40:56;;;;;;;2.55;1.40;;;19.60;99.90;;;;;;5076730;28;20202;-67
2023/08/13 03:43:24;;;;;;;2.67;1.40;;;19.50;99.90;;;;;;5075513;28;20176;-66
2023/08/13 03:45:54;;;;;;;2.10;1.30;;;19.50;99.90;;;;;;5077905;28;20200;-67
2023/08/13 03:48:22;;;;;;;1.92;1.30;;;19.50;99.90;;;;;;5084294;28;20195;-67
2023/08/13 03:50:50;;;;;;;2.60;1.30;;;19.50;99.90;;;;;;5082630;28;20249;-66
2023/08/13 03:53:24;;;;;;;2.58;1.38;;;19.50;99.90;;;;;;5085669;28;20262;-66
2023/08/13 03:55:53;;;;;;;2.13;1.50;;;19.40;99.90;;;;;;5079529;28;20179;-66
2023/08/13 03:58:18;;;;;;;2.05;1.40;;;19.50;99.90;;;;;;5078282;28;20168;-66
2023/08/13 04:00:46;;;;;;;1.40;1.23;;;19.50;99.90;;;;;;5072626;28;20215;-65
2023/08/13 04:03:14;;;;;;;2.55;1.33;;;19.50;99.90;;;;;;5112821;28;20196;-66
2023/08/13 04:05:40;;;;;;;2.70;1.45;;;19.50;99.90;;;;;;5077867;28;20164;-66
2023/08/13 04:08:06;;;;;;;2.05;1.25;;;19.50;99.90;;;;;;5076984;28;20270;-66
2023/08/13 04:10:32;;;;;;;2.15;1.15;;;19.50;99.90;;;;;;5075867;28;20207;-66
2023/08/13 04:13:00;;;;;;;1.88;1.40;;;19.50;99.90;;;;;;5062055;28;20187;-66
2023/08/13 04:15:28;;;;;;;2.00;1.35;;;19.60;99.90;;;;;;5083444;28;20207;-66
2023/08/13 04:17:56;;;;;;;2.13;1.40;;;19.60;99.90;;;;;;5108308;28;20204;-66
2023/08/13 04:20:22;;;;;;;2.15;1.35;;;19.60;99.90;;;;;;5079633;28;20199;-66
2023/08/13 04:22:47;;;;;;;2.42;1.55;;;19.60;99.90;;;;;;5087548;28;20292;-66
2023/08/13 04:25:13;;;;;;;1.58;1.30;;;19.60;99.90;;;;;;5076590;28;20296;-65
2023/08/13 04:27:39;;;;;;;3.90;1.35;;;19.60;99.90;;;;;;5079916;28;20231;-66
2023/08/13 04:30:05;;;;;;;2.17;1.38;;;19.60;99.90;;;;;;5071082;28;20183;-66
2023/08/13 04:32:32;;;;;;;1.50;1.25;;;19.60;99.90;;;;;;5079523;28;20176;-66
2023/08/13 04:34:58;;;;;;;1.60;1.30;;;19.60;99.90;;;;;;5079302;28;20187;-66
2023/08/13 04:37:23;;;;;;;1.63;1.23;;;19.50;99.90;;;;;;5082492;28;20226;-67
2023/08/13 04:39:49;;;;;;;2.25;1.52;;;19.50;99.90;;;;;;5076960;28;20195;-66
2023/08/13 04:42:15;;;;;;;5.25;3.92;;;19.50;99.90;;;;;;5108844;28;20411;-66
2023/08/13 04:44:41;;;;;;;8.73;6.97;;;19.50;99.90;;;;;;5075524;28;20183;-65
2023/08/13 04:47:07;;;;;;;4.82;3.60;;;19.50;99.90;;;;;;5078452;28;20188;-67
2023/08/13 04:49:34;;;;;;;3.30;2.83;;;19.40;99.90;;;;;;5074664;28;20191;-66
2023/08/13 04:52:00;;;;;;;5.75;2.70;;;19.40;99.90;;;;;;5080288;28;20237;-66
2023/08/13 04:54:26;;;;;;;3.05;2.72;;;19.40;99.90;;;;;;5079162;28;20180;-66
2023/08/13 04:56:51;;;;;;;18.23;14.65;;;19.40;99.90;;;;;;5086339;28;20168;-66
2023/08/13 04:59:17;;;;;;;8.95;6.50;;;19.40;99.90;;;;;;5075837;28;20188;-65
2023/08/13 05:01:45;;;;;;;5.32;4.32;;;19.30;99.90;;;;;;5079323;28;20164;-67
2023/08/13 05:04:12;;;;;;;3.33;3.00;;;19.30;99.90;;;;;;5079028;28;20188;-66
2023/08/13 05:06:38;;;;;;;3.22;2.40;;;19.30;99.90;;;;;;5086053;28;20312;-68
2023/08/13 05:09:04;;;;;;;3.22;2.20;;;19.40;99.90;;;;;;5079449;28;20235;-65
2023/08/13 05:11:31;;;;;;;2.15;1.85;;;19.40;99.90;;;;;;5112801;28;20172;-66
2023/08/13 05:13:57;;;;;;;2.00;1.63;;;19.30;99.90;;;;;;5078827;28;20179;-66
2023/08/13 05:16:23;;;;;;;3.78;2.05;;;19.30;99.90;;;;;;5087543;28;20257;-66
2023/08/13 05:18:48;;;;;;;2.83;1.80;;;19.40;99.90;;;;;;5111741;28;20194;-66
2023/08/13 05:21:16;;;;;;;6.18;1.75;;;19.30;99.90;;;;;;5074046;28;20447;-66
2023/08/13 05:23:42;;;;;;;1.63;1.40;;;19.40;99.90;;;;;;5079834;28;20225;-66
2023/08/13 05:26:07;;;;;;;1.98;1.58;;;19.40;99.90;;;;;;5070259;28;20172;-65
2023/08/13 05:28:33;;;;;;;2.63;1.88;;;19.40;99.90;;;;;;5081854;28;20168;-64
2023/08/13 05:31:02;;;;;;;2.45;1.50;;;19.40;99.90;;;;;;5068581;28;20263;-64
2023/08/13 05:33:28;;;;;;;2.67;1.95;;;19.40;99.90;;;;;;5073879;28;20203;-65
2023/08/13 05:35:55;;;;;;;2.00;1.52;;;19.50;99.90;;;;;;5076182;28;20187;-66
2023/08/13 05:38:23;;;;;;;2.85;1.60;;;19.50;99.90;;;;;;5061844;28;20197;-66
2023/08/13 05:40:51;;;;;;;3.22;1.58;;;19.50;99.90;;;;;;5077917;28;20213;-66
2023/08/13 05:43:17;;;;;;;2.00;1.60;;;19.60;99.90;;;;;;5078321;28;20266;-65
2023/08/13 05:45:42;;;;;;;3.53;1.85;;;19.60;99.90;;;;;;5073088;28;20325;-65
2023/08/13 05:48:10;;;;;;;3.83;1.80;;;19.60;99.90;;;;;;5085713;28;20179;-66
2023/08/13 05:50:38;;;;;;;3.05;1.80;;;19.70;99.90;;;;;;5070106;28;20232;-66
2023/08/13 05:53:04;;;;;;;2.70;2.00;;;19.70;99.90;;;;;;5077860;28;20195;-66
2023/08/13 05:55:30;;;;;;;3.83;2.65;;;19.70;99.90;;;;;;5064127;28;20251;-66
2023/08/13 05:57:55;;;;;;;3.33;2.45;;;19.80;99.90;;;;;;5069957;28;20184;-66
2023/08/13 06:00:21;;;;;;;3.13;2.00;;;19.90;99.90;;;;;;5074288;28;20294;-65
2023/08/13 06:02:46;;;;;;;3.65;2.17;;;19.90;99.90;;;;;;5068250;28;20303;-65
2023/08/13 06:05:12;;;;;;;3.35;2.17;;;20.00;99.90;;;;;;5101626;28;20208;-67
2023/08/13 06:07:40;;;;;;;2.78;1.98;;;20.10;99.90;;;;;;5075669;28;20283;-65
2023/08/13 06:10:06;;;;;;;3.28;1.83;;;20.10;99.90;;;;;;5077984;28;20179;-65
2023/08/13 06:12:34;;;;;;;3.25;1.73;;;20.20;99.90;;;;;;5068861;28;20224;-66
2023/08/13 06:15:02;;;;;;;2.20;1.70;;;20.30;99.90;;;;;;5081547;28;20220;-66
2023/08/13 06:17:30;;;;;;;5.20;2.03;;;20.30;99.90;;;;;;5078582;28;20259;-65
2023/08/13 06:19:56;;;;;;;4.65;2.28;;;20.40;99.90;;;;;;5084662;28;20294;-65
2023/08/13 06:22:21;;;;;;;3.88;2.20;;;20.50;99.90;;;;;;5088264;28;20219;-66
2023/08/13 06:24:49;;;;;;;2.70;2.13;;;20.50;99.90;;;;;;5091480;28;20188;-66
2023/08/13 06:27:15;;;;;;;3.95;2.00;;;20.60;99.90;;;;;;5077649;28;20184;-66
2023/08/13 06:29:41;;;;;;;2.40;1.80;;;20.70;99.90;;;;;;5074138;28;20184;-65
2023/08/13 06:32:11;;;;;;;3.85;2.22;;;20.70;99.90;;;;;;5085549;28;20175;-65
2023/08/13 06:34:37;;;;;;;3.10;1.80;;;20.80;99.90;;;;;;5072198;28;20193;-65
2023/08/13 06:37:05;;;;;;;2.65;1.60;;;20.80;99.90;;;;;;5077256;28;20247;-65
2023/08/13 06:39:31;;;;;;;2.83;1.80;;;20.90;99.90;;;;;;5077293;28;20175;-65
2023/08/13 06:41:59;;;;;;;4.38;1.77;;;21.00;99.90;;;;;;5083740;28;20200;-65
2023/08/13 06:44:27;;;;;;;3.45;2.40;;;21.00;99.90;;;;;;5067917;28;20185;-64
2023/08/13 06:46:53;;;;;;;3.15;2.15;;;21.10;99.90;;;;;;5069800;28;20187;-66
2023/08/13 06:49:21;;;;;;;3.63;2.17;;;21.20;99.90;;;;;;5073469;28;20196;-66
2023/08/13 06:51:47;;;;;;;3.47;1.77;;;21.20;99.90;;;;;;5100096;28;20245;-67
2023/08/13 06:54:12;;;;;;;2.72;1.67;;;21.30;99.90;;;;;;5083221;28;20176;-66
2023/08/13 06:56:38;;;;;;;5.63;2.00;;;21.40;99.90;;;;;;5077058;28;20214;-64
2023/08/13 06:59:06;;;;;;;5.10;3.03;;;21.40;99.90;;;;;;5077517;28;20198;-65
2023/08/13 07:01:34;;;;;;;4.82;2.63;;;21.50;99.90;;;;;;5077156;28;20195;-66
2023/08/13 07:04:00;;;;;;;3.33;2.17;;;21.50;99.90;;;;;;5075549;28;20196;-65
2023/08/13 07:06:29;;;;;;;5.20;2.47;;;21.60;99.90;;;;;;5081124;28;20182;-67
2023/08/13 07:08:57;;;;;;;4.43;2.05;;;21.60;99.90;;;;;;5080246;28;20200;-64
2023/08/13 07:11:23;;;;;;;3.83;2.40;;;21.70;99.90;;;;;;5078357;28;20203;-65
2023/08/13 07:13:52;;;;;;;4.50;2.47;;;21.70;99.90;;;;;;5070798;28;20196;-65
2023/08/13 07:16:18;;;;;;;4.07;2.47;;;21.70;99.90;;;;;;5076686;28;20216;-65
2023/08/13 07:18:45;;;;;;;3.80;2.50;;;21.70;99.90;;;;;;5080441;28;20172;-65
2023/08/13 07:21:11;;;;;;;4.22;2.60;;;21.80;99.90;;;;;;5076617;28;20254;-65
2023/08/13 07:23:37;;;;;;;4.03;2.45;;;21.80;99.90;;;;;;5081605;28;20168;-65
2023/08/13 07:26:07;;;;;;;4.15;2.42;;;21.90;99.90;;;;;;5094600;28;20172;-65
2023/08/13 07:28:35;;;;;;;3.85;2.30;;;21.90;99.90;;;;;;5094817;28;20239;-65
2023/08/13 07:31:04;;;;;;;2.88;2.13;;;21.90;99.90;;;;;;5092500;28;20292;-65
2023/08/13 07:33:31;;;;;;;3.25;2.20;;;22.00;99.90;;;;;;5081311;28;20175;-65
2023/08/13 07:35:59;;;;;;;3.88;2.30;;;22.00;99.90;;;;;;5081515;28;20320;-65
2023/08/13 07:38:29;;;;;;;4.22;2.75;;;22.10;99.90;;;;;;5080888;28;20199;-66
2023/08/13 07:41:00;;;;;;;3.70;2.60;;;22.10;99.90;;;;;;5081121;28;20215;-66
2023/08/13 07:43:28;;;;;;;3.08;2.20;;;22.10;99.90;;;;;;5080960;28;20183;-65
2023/08/13 07:45:53;;;;;;;3.53;2.30;;;22.20;99.90;;;;;;5096648;28;20191;-65
2023/08/13 07:48:19;;;;;;;4.28;2.65;;;22.30;99.90;;;;;;5087664;28;20172;-65
2023/08/13 07:50:45;;;;;;;3.08;2.03;;;22.40;99.90;;;;;;5082849;28;20212;-65
2023/08/13 07:53:11;;;;;;;3.53;2.00;;;22.50;99.90;;;;;;5080181;28;20206;-65
2023/08/13 07:55:36;;;;;;;4.05;1.67;;;22.50;99.90;;;;;;5080097;28;20210;-66
2023/08/13 07:58:02;;;;;;;3.80;1.88;;;22.60;99.90;;;;;;5081333;28;20382;-65
2023/08/13 08:00:28;;;;;;;3.45;1.83;;;22.70;99.90;;;;;;5111347;28;20287;-64
2023/08/13 08:02:54;;;;;;;4.10;1.98;;;22.70;99.90;;;;;;5078578;28;20262;-65
2023/08/13 08:05:23;;;;;;;3.95;2.03;;;22.80;99.90;;;;;;5091594;28;20451;-65
2023/08/13 08:07:53;;;;;;;3.65;1.90;;;22.80;99.90;;;;;;5084229;28;20214;-64
2023/08/13 08:10:21;;;;;;;4.93;1.77;;;22.90;99.90;;;;;;5101262;28;20207;-65
2023/08/13 08:12:47;;;;;;;9.82;7.13;;;23.00;99.90;;;;;;5080160;28;20203;-66
2023/08/13 08:15:13;;;;;;;5.40;4.03;;;23.00;99.90;;;;;;5080323;28;20184;-65
2023/08/13 08:17:38;;;;;;;6.53;3.10;;;23.10;99.90;;;;;;5088198;28;20180;-65
2023/08/13 08:20:06;;;;;;;5.25;2.10;;;23.10;99.90;;;;;;5079926;28;20203;-65
2023/08/13 08:22:32;;;;;;;4.32;2.00;;;23.20;99.90;;;;;;5111731;28;20242;-65
2023/08/13 08:24:57;;;;;;;4.47;1.58;;;23.20;99.90;;;;;;5080318;28;20188;-64
2023/08/13 08:27:25;;;;;;;3.10;1.55;;;23.30;99.90;;;;;;5074519;28;20184;-65
2023/08/13 08:29:51;;;;;;;4.07;1.75;;;23.30;99.90;;;;;;5063699;28;20221;-65
2023/08/13 08:32:18;;;;;;;3.13;1.67;;;23.40;99.90;;;;;;5076493;28;20204;-65
2023/08/13 08:34:44;;;;;;;4.07;1.80;;;23.40;99.90;;;;;;5105449;28;20236;-65
2023/08/13 08:37:12;;;;;;;3.97;1.90;;;23.50;99.90;;;;;;5073088;28;20176;-65
2023/08/13 08:39:37;;;;;;;3.15;1.60;;;23.50;99.90;;;;;;5078906;28;20473;-65
2023/08/13 08:42:03;;;;;;;3.38;1.60;;;23.60;99.90;;;;;;5077701;28;20186;-65
2023/08/13 08:44:30;;;;;;;6.05;1.60;;;23.60;99.90;;;;;;5077239;28;20198;-66
2023/08/13 08:46:59;;;;;;;2.65;1.52;;;23.60;99.90;;;;;;5079481;28;20176;-66
2023/08/13 08:49:26;;;;;;;4.85;2.05;;;23.60;99.90;;;;;;5079408;28;20172;-65
2023/08/13 08:51:52;;;;;;;3.20;1.80;;;23.70;99.90;;;;;;5086914;28;20215;-66
2023/08/13 08:54:18;;;;;;;3.75;1.67;;;23.70;99.90;;;;;;5079497;28;20207;-66
2023/08/13 08:56:46;;;;;;;3.22;1.60;;;23.70;99.90;;;;;;5079228;28;20271;-66
2023/08/13 08:59:19;;;;;;;2.83;1.52;;;23.70;99.90;;;;;;5070997;28;20313;-66
2023/08/13 09:01:47;;;;;;;3.92;1.75;;;23.70;99.90;;;;;;5074609;28;20196;-65
2023/08/13 09:04:15;;;;;;;2.72;1.58;;;23.80;99.90;;;;;;5084193;28;20176;-65
2023/08/13 09:07:00;;;;;;;3.72;1.70;;;23.80;99.90;;;;;;5108321;28;20187;-66
2023/08/13 09:09:30;;;;;;;3.53;1.58;;;23.90;99.90;;;;;;5077401;28;20262;-66
2023/08/13 09:11:59;;;;;;;3.10;1.60;;;23.90;99.90;;;;;;5076116;28;20165;-65
2023/08/13 09:14:26;;;;;;;5.68;2.10;;;24.00;99.90;;;;;;5076982;28;20187;-65
2023/08/13 09:16:53;;;;;;;3.55;1.67;;;24.10;99.90;;;;;;5084434;28;20215;-65
2023/08/13 09:19:21;;;;;;;3.05;1.80;;;24.10;99.90;;;;;;5075486;28;20203;-67
2023/08/13 09:21:52;;;;;;;4.78;2.53;;;24.20;99.90;;;;;;5078885;28;20286;-66
2023/08/13 09:24:18;;;;;;;1.98;1.65;;;24.30;99.90;;;;;;5078225;28;20218;-65
2023/08/13 09:26:45;;;;;;;3.40;2.00;;;24.40;99.90;;;;;;5092894;28;20259;-67
2023/08/13 09:29:11;;;;;;;6.40;1.73;;;24.40;99.90;;;;;;5073053;28;20293;-66
2023/08/13 09:31:40;;;;;;;3.30;1.73;;;24.50;99.90;;;;;;5078214;28;20176;-66
2023/08/13 09:34:08;;;;;;;3.67;1.80;;;24.60;99.90;;;;;;5109886;28;20375;-66
2023/08/13 09:36:34;;;;;;;3.08;2.08;;;24.60;99.90;;;;;;5081661;28;20183;-67
2023/08/13 09:39:00;;;;;;;3.67;1.98;;;24.70;99.90;;;;;;5072436;28;20191;-67
2023/08/13 09:41:27;;;;;;;3.60;1.90;;;24.80;99.90;;;;;;5070720;28;20192;-64
2023/08/13 09:43:54;;;;;;;3.92;1.90;;;24.80;99.90;;;;;;5088128;28;20207;-65
2023/08/13 09:46:23;;;;;;;3.40;1.85;;;24.90;99.90;;;;;;5085220;28;20195;-65
2023/08/13 09:48:53;;;;;;;5.05;1.58;;;24.90;99.90;;;;;;5111927;28;20180;-66
2023/08/13 09:51:23;;;;;;;3.80;1.80;;;24.90;99.90;;;;;;5077031;28;20172;-65
2023/08/13 09:53:57;;;;;;;4.43;2.00;;;24.90;99.90;;;;;;5092508;28;20199;-65
2023/08/13 09:56:25;;;;;;;4.88;2.20;;;24.90;99.90;;;;;;5073724;28;20176;-65
2023/08/13 09:58:53;;;;;;;4.65;2.10;;;24.90;99.90;;;;;;5077504;28;20175;-66
2023/08/13 10:01:23;;;;;;;6.32;1.95;;;24.80;99.90;;;;;;5076729;28;20215;-65
2023/08/13 10:03:52;;;;;;;4.82;2.10;;;24.80;99.90;;;;;;5087646;28;20201;-64
2023/08/13 10:06:19;;;;;;;3.67;1.80;;;24.70;99.90;;;;;;5070095;28;20214;-65
2023/08/13 10:08:45;;;;;;;5.72;2.50;;;24.70;99.90;;;;;;5076868;28;20173;-64
2023/08/13 10:11:12;;;;;;;4.18;2.08;;;24.70;99.90;;;;;;5095603;28;20176;-65
2023/08/13 10:13:42;;;;;;;4.18;1.90;;;24.80;99.90;;;;;;5077881;28;20179;-66
2023/08/13 10:16:08;;;;;;;4.20;1.92;;;24.80;99.90;;;;;;5110928;28;20279;-67
2023/08/13 10:18:36;;;;;;;2.90;1.52;;;24.90;99.90;;;;;;5076242;28;20478;-66
2023/08/13 10:21:04;;;;;;;4.60;2.08;;;24.90;99.90;;;;;;5072204;28;20196;-65
2023/08/13 10:23:30;;;;;;;5.53;2.00;;;25.00;99.90;;;;;;5069766;28;20176;-66
2023/08/13 10:25:56;;;;;;;4.38;1.77;;;25.00;99.90;;;;;;5077026;28;20185;-66
2023/08/13 10:28:32;;;;;;;2.80;1.73;;;25.10;99.90;;;;;;5075028;28;20204;-66
2023/08/13 10:31:27;;;;;;;4.53;2.05;;;25.10;99.90;;;;;;5075419;28;20172;-66
2023/08/13 10:34:16;;;;;;;4.53;1.80;;;25.20;99.90;;;;;;5101794;28;20190;-66
2023/08/13 10:36:49;;;;;;;3.22;1.75;;;25.20;99.90;;;;;;5073131;28;20298;-66
2023/08/13 10:39:37;;;;;;;2.97;1.58;;;25.20;99.90;;;;;;5085447;28;20180;-66
2023/08/13 10:42:26;;;;;;;4.00;2.08;;;25.20;99.90;;;;;;5071141;28;20204;-65
2023/08/13 10:45:12;;;;;;;6.10;2.00;;;25.20;99.90;;;;;;5076245;28;20320;-67
2023/08/13 10:47:38;;;;;;;4.07;2.13;;;25.20;99.90;;;;;;5075645;28;20275;-65
2023/08/13 10:50:07;;;;;;;3.47;1.90;;;25.10;99.90;;;;;;5076126;28;20195;-67
2023/08/13 10:52:36;;;;;;;4.00;2.13;;;25.20;99.90;;;;;;5074510;28;20172;-65
2023/08/13 10:55:04;;;;;;;3.38;1.90;;;25.10;99.90;;;;;;5072433;28;20172;-65
2023/08/13 10:57:32;;;;;;;3.90;1.90;;;25.10;99.90;;;;;;5073608;28;20193;-65
2023/08/13 10:59:58;;;;;;;3.25;1.90;;;25.10;99.90;;;;;;5108258;28;20273;-65
2023/08/13 11:02:27;;;;;;;4.03;2.03;;;25.10;99.90;;;;;;5072852;28;20226;-66
2023/08/13 11:04:52;;;;;;;4.43;2.45;;;25.20;99.90;;;;;;5075081;28;20171;-66
2023/08/13 11:07:20;;;;;;;3.67;2.17;;;25.20;99.90;;;;;;5072933;28;20280;-66
2023/08/13 11:09:46;;;;;;;4.07;2.08;;;25.20;99.90;;;;;;5075017;28;20195;-66
2023/08/13 11:12:14;;;;;;;4.25;2.33;;;25.20;99.90;;;;;;5109684;28;20178;-67
2023/08/13 11:14:41;;;;;;;4.95;2.50;;;25.20;99.90;;;;;;5078065;28;20176;-66
2023/08/13 11:17:09;;;;;;;5.40;2.47;;;25.20;99.90;;;;;;5076268;28;20232;-66
2023/08/13 11:19:35;;;;;;;3.38;1.95;;;25.20;99.90;;;;;;5075891;28;20187;-66
2023/08/13 11:22:02;;;;;;;4.60;2.15;;;25.20;99.90;;;;;;5083455;28;20171;-66
2023/08/13 11:24:31;;;;;;;3.58;2.08;;;25.20;99.90;;;;;;5073048;28;20196;-65
2023/08/13 11:26:58;;;;;;;3.15;2.10;;;25.20;99.90;;;;;;5075975;28;20191;-67
2023/08/13 11:29:23;;;;;;;3.38;2.22;;;25.20;99.90;;;;;;5070910;28;20176;-66
2023/08/13 11:31:51;;;;;;;3.85;2.10;;;25.20;99.90;;;;;;5075626;28;20404;-65
2023/08/13 11:34:20;;;;;;;3.67;1.90;;;25.20;99.90;;;;;;5075790;28;20184;-65
2023/08/13 11:36:52;;;;;;;3.95;2.05;;;25.20;99.90;;;;;;5076546;28;20191;-66
2023/08/13 11:39:20;;;;;;;3.03;1.80;;;25.20;99.90;;;;;;5075399;28;20179;-65
2023/08/13 11:41:46;;;;;;;4.03;2.10;;;25.30;99.90;;;;;;5073878;28;20297;-64
2023/08/13 11:44:12;;;;;;;3.63;1.80;;;25.40;99.90;;;;;;5072049;28;20526;-66
2023/08/13 11:46:54;;;;;;;5.30;2.33;;;25.40;99.90;;;;;;5076048;28;20259;-66
2023/08/13 11:49:20;;;;;;;2.92;1.80;;;25.50;99.90;;;;;;5088412;28;20193;-65
2023/08/13 11:51:46;;;;;;;3.83;1.90;;;25.50;99.90;;;;;;5076305;28;20203;-66
2023/08/13 11:54:12;;;;;;;4.18;1.83;;;25.60;99.90;;;;;;5075913;28;20180;-65
2023/08/13 11:56:45;;;;;;;3.13;1.88;;;25.60;99.90;;;;;;5069217;28;20171;-66
2023/08/13 11:59:11;;;;;;;5.05;1.98;;;25.70;99.90;;;;;;5085871;28;20212;-65
2023/08/13 12:01:38;;;;;;;5.10;2.03;;;25.80;99.90;;;;;;5073731;28;20197;-66
2023/08/13 12:04:04;;;;;;;3.20;1.85;;;25.80;99.90;;;;;;5075489;28;20207;-65
2023/08/13 12:06:32;;;;;;;4.20;1.90;;;25.90;99.90;;;;;;5081866;28;20217;-65
2023/08/13 12:09:03;;;;;;;3.45;2.08;;;26.00;99.90;;;;;;5076769;28;20368;-66
2023/08/13 12:11:29;;;;;;;3.88;2.03;;;26.10;99.90;;;;;;5075782;28;20223;-66
2023/08/13 12:13:56;;;;;;;4.68;2.20;;;26.20;99.90;;;;;;5113336;28;20207;-67
2023/08/13 12:16:22;;;;;;;2.83;1.98;;;26.30;99.90;;;;;;5062361;28;20196;-67
2023/08/13 12:18:50;;;;;;;3.80;1.45;;;26.40;99.90;;;;;;5075422;28;20180;-67
2023/08/13 12:21:15;;;;;;;5.03;1.60;;;26.50;99.90;;;;;;5079186;28;20230;-66
2023/08/13 12:23:43;;;;;;;3.78;1.70;;;26.60;99.90;;;;;;5084304;28;20171;-66
2023/08/13 12:26:09;;;;;;;2.55;1.80;;;26.70;99.90;;;;;;5079942;28;20202;-66
2023/08/13 12:28:35;;;;;;;2.30;1.58;;;26.80;99.90;;;;;;5079704;28;20176;-67
2023/08/13 12:31:01;;;;;;;3.15;1.63;;;26.90;99.90;;;;;;5073019;28;20191;-66
2023/08/13 12:33:26;;;;;;;4.40;1.50;;;26.90;99.90;;;;;;5064837;28;20184;-66
2023/08/13 12:35:55;;;;;;;2.20;1.40;;;27.00;99.90;;;;;;5079860;28;20335;-65
2023/08/13 12:38:23;;;;;;;3.22;1.50;;;27.00;99.90;;;;;;5078353;28;20176;-66
2023/08/13 12:40:49;;;;;;;2.30;1.40;;;27.10;99.90;;;;;;5065533;28;20207;-67
2023/08/13 12:43:15;;;;;;;2.83;1.35;;;27.10;99.90;;;;;;5072520;28;20179;-65
2023/08/13 12:45:40;;;;;;;2.60;1.02;;;27.00;99.90;;;;;;5074101;28;20197;-65
2023/08/13 12:48:08;;;;;;;2.17;1.42;;;27.00;99.90;;;;;;5068039;28;20215;-67
2023/08/13 12:50:34;;;;;;;2.72;1.40;;;26.90;99.90;;;;;;5077960;28;20176;-65